Terminal Aerodrome Forecast
Issued by NWS

Home | Current Version | Previous Version | Text Only | Print | Product List | Glossary Off
Versions: 1 2 3 4 5 6 7 8 9 10 11 12 13 14 15

011
FTUS43 KICT 161130
TAFSLN
TAF
KSLN 161130Z 1612/1712 03010KT 4SM -RA BR OVC003
      TEMPO 1612/1614 2SM -RA BR OVC005
     FM161800 35011KT P6SM OVC006
     FM162300 32013KT P6SM OVC008
      AMD NOT SKED=

USA.gov is the U.S. government's official web portal to all federal, state and local government web resources and services.